Flight Track Log - Related Links

Times and Time Zones

All times are in EDT time to prevent confusion due to time zone crossing. See the JZA8945 flight status page for this flight to view local times or setup timezone preferences in your user account.

Time Position Orientation Groundspeed Altitude Reporting Facility
EDT Latitude Longitude Course Direction KTS MPH feet Rate Location/Type
Tue 04:40:07 AM 45.3500 -65.9500 277° West 130 150 3,700  Level Moncton Center
Tue 04:41:07 AM 45.3500 -66.0167 270° West 150 173 5,800 1,700 Climbing Moncton Center
Tue 04:42:07 AM 45.3333 -66.0833 250° West 180 207 7,100 1,450 Climbing Moncton Center
Tue 04:43:00 AM 45.3487 -66.3982 276° West  Level FlightAware Approximate
Tue 04:43:07 AM 45.3333 -66.1500 270° West 210 242 8,700  Level Moncton Center
Tue 04:44:00 AM 45.3533 -66.5022 277° West  Level FlightAware Approximate
Tue 04:44:07 AM 45.3333 -66.2500 270° West 220 253 10,500  Level Moncton Center
Tue 04:45:07 AM 45.3333 -66.3167 270° West 220 253 12,300 1,750 Climbing Moncton Center
Tue 04:46:07 AM 45.3333 -66.4167 270° West 220 253 14,000 1,700 Climbing Moncton Center
Tue 04:47:07 AM 45.3500 -66.5167 283° West 220 253 15,700 1,700 Climbing Moncton Center
Tue 04:48:07 AM 45.3500 -66.5833 270° West 230 265 17,400 1,550 Climbing Moncton Center
Tue 04:49:07 AM 45.3667 -66.6833 283° West 220 253 18,800 1,350 Climbing Moncton Center
Tue 04:50:07 AM 45.3500 -66.7833 257° West 230 265 20,100 1,250 Climbing Moncton Center
Tue 04:51:07 AM 45.3500 -66.8667 270° West 230 265 21,300 1,150 Climbing Moncton Center
Tue 04:52:07 AM 45.3500 -66.9667 270° West 230 265 22,400 1,100 Climbing Moncton Center
Tue 04:53:07 AM 45.3500 -67.0667 270° West 230 265 23,500 800 Climbing Moncton Center
Tue 04:54:07 AM 45.3333 -67.1500 254° West 230 265 24,000 250 Climbing Moncton Center
Tue 04:55:07 AM 45.3333 -67.2500 270° West 250 288 24,000  Level Moncton Center
Tue 04:56:07 AM 45.3333 -67.3500 270° West 270 311 24,000  Level Moncton Center
Tue 04:57:07 AM 45.3333 -67.4667 270° West 280 322 24,000  Level Moncton Center
Tue 04:58:07 AM 45.3167 -67.5833 259° West 280 322 24,000  Level Moncton Center
Tue 04:59:07 AM 45.3167 -67.6833 270° West 280 322 24,000  Level Moncton Center
Tue 05:00:07 AM 45.3333 -67.8000 282° West 290 334 24,000  Level Moncton Center
Tue 05:01:07 AM 45.3667 -67.9000 295° West 290 334 24,000  Level Moncton Center
Tue 05:02:31 AM 45.4344 -68.0375 305° West 290 334 24,000  Level Boston Center
Tue 05:03:31 AM 45.4667 -68.1397 294° West 292 336 24,000  Level Boston Center
Tue 05:04:31 AM 45.5006 -68.2458 295° West 293 337 24,000  Level Boston Center
Tue 05:05:32 AM 45.5333 -68.3511 294° West 292 336 24,000  Level Boston Center
Tue 05:06:32 AM 45.5672 -68.4567 295° West 292 336 24,000  Level Boston Center
Tue 05:07:32 AM 45.5950 -68.5656 290° West 290 334 24,000  Level Boston Center
Tue 05:08:32 AM 45.6050 -68.6800 277° West 290 334 24,000  Level Boston Center
Tue 05:09:33 AM 45.6169 -68.7958 278° West 291 335 24,000  Level Boston Center
Tue 05:10:33 AM 45.6300 -68.9092 279° West 289 333 24,000  Level Boston Center
Tue 05:11:33 AM 45.6422 -69.0244 279° West 291 335 24,000  Level Boston Center
Tue 05:12:33 AM 45.6558 -69.1406 280° West 294 338 24,000  Level Boston Center
Tue 05:13:34 AM 45.6678 -69.2572 278° West 296 341 24,000  Level Boston Center
Tue 05:14:34 AM 45.6800 -69.3750 278° West 298 343 24,000  Level Boston Center
Tue 05:15:34 AM 45.6933 -69.4906 279° West 296 341 24,000  Level Boston Center
Tue 05:16:34 AM 45.7050 -69.6064 278° West 294 338 24,000  Level Boston Center
Tue 05:17:35 AM 45.7178 -69.7236 279° West 296 341 24,000  Level Boston Center
Tue 05:18:35 AM 45.7283 -69.8400 277° West 295 339 24,000  Level Boston Center
Tue 05:19:35 AM 45.7400 -69.9525 278° West 289 333 24,000  Level Boston Center
Tue 05:20:35 AM 45.7522 -70.0669 279° West 289 333 24,000  Level Boston Center
Tue 05:21:36 AM 45.7642 -70.1825 278° West 293 337 24,000  Level Boston Center
Tue 05:22:36 AM 45.7753 -70.2997 278° West 295 339 24,000  Level Boston Center
Tue 05:23:36 AM 45.7878 -70.4181 279° West 298 343 24,000  Level Boston Center
Tue 05:24:07 AM 45.7833 -70.5000 266° West 300 345 24,000  Level Moncton Center
Tue 05:24:48 AM 45.7667 -70.5333 234° Southwest 290 334 24,000  Level Montreal Center
Tue 05:25:48 AM 45.7667 -70.6500 270° West 290 334 24,000  Level Montreal Center
Tue 05:26:48 AM 45.7500 -70.7833 260° West 290 334 24,000  Level Montreal Center
Tue 05:27:48 AM 45.7333 -70.9000 258° West 280 322 24,000  Level Montreal Center
Tue 05:28:48 AM 45.7500 -71.0000 283° West 280 322 24,000  Level Montreal Center
Tue 05:29:48 AM 45.7333 -71.1000 257° West 270 311 24,000  Level Montreal Center
Tue 05:30:48 AM 45.7167 -71.2167 258° West 270 311 24,000  Level Montreal Center
Tue 05:31:48 AM 45.7167 -71.3167 270° West 270 311 24,000  Level Montreal Center
Tue 05:32:48 AM 45.7167 -71.4333 270° West 270 311 24,000  Level Montreal Center
Tue 05:33:48 AM 45.7000 -71.5333 257° West 270 311 24,000  Level Montreal Center
Tue 05:34:48 AM 45.6833 -71.6500 258° West 270 311 24,000  Level Montreal Center
Tue 05:35:48 AM 45.6833 -71.7500 270° West 260 299 24,000  Level Montreal Center
Tue 05:36:48 AM 45.6833 -71.8333 270° West 260 299 24,000  Level Montreal Center
Tue 05:37:48 AM 45.6667 -71.9667 260° West 260 299 24,000  Level Montreal Center
Tue 05:38:48 AM 45.6500 -72.0667 257° West 260 299 24,000  Level Montreal Center
Tue 05:39:48 AM 45.6667 -72.1500 286° West 250 288 24,000  Level Montreal Center
Tue 05:40:48 AM 45.6500 -72.2500 257° West 250 288 24,000  Level Montreal Center
Tue 05:41:48 AM 45.6333 -72.3500 257° West 250 288 24,000  Level Montreal Center
Tue 05:42:48 AM 45.6167 -72.4500 257° West 250 288 24,000  Level Montreal Center
Tue 05:43:48 AM 45.6167 -72.5667 270° West 250 288 24,000  Level Montreal Center
Tue 05:44:48 AM 45.6000 -72.6333 250° West 240 276 24,000  Level Montreal Center
Tue 05:45:48 AM 45.6167 -72.7333 283° West 250 288 24,000  Level Montreal Center
Tue 05:46:48 AM 45.6167 -72.8500 270° West 240 276 24,000  Level Montreal Center
Tue 05:47:48 AM 45.6000 -72.9333 254° West 240 276 24,000  Level Montreal Center
Tue 05:48:48 AM 45.6000 -73.0500 270° West 240 276 24,000  Level Montreal Center
Tue 05:49:48 AM 45.6000 -73.1333 270° West 240 276 24,000  Level Montreal Center
Tue 05:50:48 AM 45.6000 -73.2333 270° West 240 276 24,000  Level Montreal Center
Tue 05:51:48 AM 45.6167 -73.3333 283° West 240 276 24,000  Level Montreal Center
Tue 05:52:48 AM 45.6167 -73.4333 270° West 250 288 24,000  Level Montreal Center
Tue 05:53:48 AM 45.6167 -73.5167 270° West 250 288 24,000  Level Montreal Center
Tue 05:54:48 AM 45.6000 -73.6167 257° West 250 288 24,000  Level Montreal Center
Tue 05:55:48 AM 45.6000 -73.7167 270° West 250 288 24,000  Level Montreal Center
Tue 05:56:48 AM 45.6000 -73.8167 270° West 250 288 24,000  Level Montreal Center
Tue 05:57:48 AM 45.6000 -73.9000 270° West 250 288 24,000  Level Montreal Center
Tue 05:58:48 AM 45.6000 -74.0333 270° West 250 288 24,000  Level Montreal Center
Tue 05:59:48 AM 45.5833 -74.1167 254° West 250 288 24,000  Level Montreal Center
Tue 06:00:48 AM 45.5667 -74.2167 257° West 250 288 24,000  Level Montreal Center
Tue 06:01:48 AM 45.5500 -74.3167 257° West 250 288 24,000  Level Montreal Center
Tue 06:02:48 AM 45.5333 -74.4167 257° West 260 299 24,000  Level Montreal Center
Tue 06:03:48 AM 45.5167 -74.5167 257° West 260 299 24,000  Level Montreal Center
Tue 06:04:48 AM 45.5000 -74.6000 254° West 260 299 24,000  Level Montreal Center
Tue 06:05:48 AM 45.4833 -74.7000 257° West 260 299 24,000  Level Montreal Center
Tue 06:07:26 AM 45.4667 -74.8500 261° West 260 299 24,000  Level Toronto Center
Tue 06:08:26 AM 45.4333 -74.9500 245° Southwest 260 299 24,000  Level Toronto Center
Tue 06:09:26 AM 45.4167 -75.0500 257° West 260 299 24,000  Level Toronto Center
Tue 06:10:26 AM 45.4167 -75.1667 270° West 260 299 24,000  Level Toronto Center
Tue 06:11:26 AM 45.4000 -75.2667 257° West 250 288 24,000  Level Toronto Center
Tue 06:12:26 AM 45.3833 -75.3500 254° West 260 299 24,000  Level Toronto Center
Tue 06:13:26 AM 45.3667 -75.4500 257° West 260 299 24,000  Level Toronto Center
Tue 06:14:26 AM 45.3500 -75.5500 257° West 270 311 24,000  Level Toronto Center
Tue 06:15:26 AM 45.3333 -75.6667 259° West 270 311 24,000  Level Toronto Center
Tue 06:16:48 AM 45.3000 -75.8500 256° West 270 311 24,000  Level Montreal Center
Tue 06:17:48 AM 45.2833 -75.9500 257° West 270 311 24,000  Level Montreal Center
Tue 06:18:48 AM 45.2667 -76.0667 259° West 270 311 24,000  Level Montreal Center
Tue 06:19:48 AM 45.2500 -76.1667 257° West 270 311 24,000  Level Montreal Center
Tue 06:20:48 AM 45.2167 -76.2500 240° Southwest 280 322 24,000  Level Montreal Center
Tue 06:21:48 AM 45.1667 -76.3500 235° Southwest 290 334 24,000  Level Montreal Center
Tue 06:22:48 AM 45.1167 -76.4500 235° Southwest 290 334 24,000  Level Montreal Center
Tue 06:23:26 AM 45.0833 -76.4667 199° South 300 345 24,000  Level Toronto Center
Tue 06:24:26 AM 45.0333 -76.5333 223° Southwest 300 345 24,000  Level Toronto Center
Tue 06:25:26 AM 44.9833 -76.6333 235° Southwest 300 345 24,000  Level Toronto Center
Tue 06:26:26 AM 44.9333 -76.7333 235° Southwest 300 345 24,000  Level Toronto Center
Tue 06:27:26 AM 44.8667 -76.8167 222° Southwest 300 345 24,000  Level Toronto Center
Tue 06:28:26 AM 44.8167 -76.9000 230° Southwest 300 345 24,000  Level Toronto Center
Tue 06:29:26 AM 44.7667 -77.0000 235° Southwest 300 345 24,000  Level Toronto Center
Tue 06:30:26 AM 44.7333 -77.1000 245° Southwest 290 334 24,000  Level Toronto Center
Tue 06:31:26 AM 44.6833 -77.2000 235° Southwest 300 345 24,000  Level Toronto Center
Tue 06:32:26 AM 44.6333 -77.3167 239° Southwest 300 345 24,000  Level Toronto Center
Tue 06:33:26 AM 44.6167 -77.4000 254° West 300 345 24,000  Level Toronto Center
Tue 06:34:26 AM 44.5667 -77.5000 235° Southwest 300 345 24,000  Level Toronto Center
Tue 06:35:26 AM 44.5167 -77.6167 239° Southwest 300 345 24,000  Level Toronto Center
Tue 06:36:26 AM 44.4833 -77.7167 245° Southwest 300 345 24,000  Level Toronto Center
Tue 06:37:26 AM 44.4333 -77.8167 235° Southwest 300 345 24,000  Level Toronto Center
Tue 06:38:26 AM 44.4000 -77.9333 248° West 310 357 24,000  Level Toronto Center
Tue 06:39:26 AM 44.3500 -78.0167 230° Southwest 310 357 24,000  Level Toronto Center
Tue 06:40:26 AM 44.3000 -78.1333 239° Southwest 310 357 24,000 -150 Level Toronto Center
Tue 06:41:26 AM 44.2667 -78.2333 245° Southwest 310 357 23,700 -1,100 Descending Toronto Center
Tue 06:42:26 AM 44.2167 -78.3500 239° Southwest 320 368 21,800 -1,850 Descending Toronto Center
Tue 06:43:26 AM 44.1667 -78.4500 235° Southwest 320 368 20,000 -1,750 Descending Toronto Center
Tue 06:44:26 AM 44.1333 -78.5333 241° Southwest 310 357 18,300 -1,750 Descending Toronto Center
Tue 06:45:26 AM 44.1000 -78.6500 248° West 310 357 16,500 -1,750 Descending Toronto Center
Tue 06:46:26 AM 44.0500 -78.7500 235° Southwest 300 345 14,800 -1,750 Descending Toronto Center
Tue 06:47:26 AM 44.0000 -78.8500 235° Southwest 300 345 13,000 -1,700 Descending Toronto Center
Tue 06:48:26 AM 43.9667 -78.9333 241° Southwest 300 345 11,400 -1,500 Descending Toronto Center
Tue 06:49:26 AM 43.9167 -79.0333 235° Southwest 280 322 10,000 -1,050 Descending Toronto Center
Tue 06:50:26 AM 43.8833 -79.1167 241° Southwest 270 311 9,300 -500 Descending Toronto Center
Tue 06:51:26 AM 43.8333 -79.2167 235° Southwest 270 311 9,000 -150 Descending Toronto Center
Tue 06:52:26 AM 43.8000 -79.2833 235° Southwest 250 288 9,000  Level Toronto Center
Tue 06:53:26 AM 43.7500 -79.3500 224° Southwest 250 288 9,000 -450 Level Toronto Center
Tue 06:54:26 AM 43.7000 -79.4333 230° Southwest 260 299 8,100 -550 Descending Toronto Center
Tue 06:55:26 AM 43.6333 -79.4667 200° South 240 276 7,900 -850 Descending Toronto Center
Tue 06:56:26 AM 43.5833 -79.5167 216° Southwest 230 265 6,400 -1,500 Descending Toronto Center
Tue 06:57:26 AM 43.5500 -79.5833 235° Southwest 230 265 4,900 -1,200 Descending Toronto Center
Tue 06:58:26 AM 43.5000 -79.6500 224° Southwest 220 253 4,000 -650 Descending Toronto Center
Tue 06:59:26 AM 43.4667 -79.7000 227° Southwest 210 242 3,600 -550 Descending Toronto Center
Tue 07:00:26 AM 43.5167 -79.7500 324° Northwest 200 230 2,900 -300 Descending Toronto Center
Tue 07:01:26 AM 43.5667 -79.7167 26° Northeast 190 219 3,000 -300 Climbing Toronto Center
Tue 07:02:26 AM 43.6000 -79.6833 36° Northeast 170 196 2,300 -800 Descending Toronto Center
Tue 07:03:26 AM 43.6167 -79.6500 55° Northeast 150 173 1,400 -750 Descending Toronto Center
Tue 07:04:26 AM 43.6500 -79.6167 36° Northeast 110 127 800 -450 Descending Toronto Center
Tue 07:05:26 AM 43.6667 -79.5833 55° Northeast 110 127 500 -300 Descending Toronto Center

Login

Don't have an account? Register now (free) for customized features, flight alerts, and more!